Terminal Aerodrome Forecast
Issued by NWS Brownsville, TX

Home | Current Version | Previous Version | Text Only | Print | Product List | Glossary On
Versions: 1 2 3 4 5 6 7 8 9 10 11 12 13 14 15 16 17 18 19 20 21
000
FTUS44 KBRO 080520
TAFMFE
TAF
KMFE 080520Z 0806/0906 14013KT 6SM HZ SCT023
      TEMPO 0806/0809 BKN025
     FM080900 15010KT P6SM BKN025
     FM081500 15015G25KT P6SM SCT030 BKN040
     FM090300 13010KT P6SM BKN030=

USA.gov is the U.S. government's official web portal to all federal, state and local government web resources and services.